sensor_id;sensor_type;location;lat;lon;timestamp;pressure;altitude;pressure_sealevel;temperature;humidity
48882;BME280;57063;51.406;-2.402;2023-03-01T02:37:44;102103.78;;;2.05;100.00
48882;BME280;57063;51.406;-2.402;2023-03-01T02:40:24;102149.72;;;2.30;100.00
48882;BME280;57063;51.406;-2.402;2023-03-01T02:43:32;102102.06;;;2.04;100.00
48882;BME280;57063;51.406;-2.402;2023-03-01T02:46:28;102116.50;;;2.07;100.00
48882;BME280;57063;51.406;-2.402;2023-03-01T02:49:27;102144.63;;;2.27;100.00
48882;BME280;57063;51.406;-2.402;2023-03-01T02:55:09;102117.25;;;1.86;100.00
48882;BME280;57063;51.406;-2.402;2023-03-01T03:24:06;102116.69;;;2.51;100.00
48882;BME280;57063;51.406;-2.402;2023-03-01T03:27:12;102080.13;;;2.37;100.00
48882;BME280;57063;51.406;-2.402;2023-03-01T03:29:56;102076.75;;;2.58;100.00
48882;BME280;57063;51.406;-2.402;2023-03-01T03:32:54;102115.06;;;2.95;100.00
48882;BME280;57063;51.406;-2.402;2023-03-01T03:35:34;102066.56;;;2.70;100.00
48882;BME280;57063;51.406;-2.402;2023-03-01T03:38:14;102065.75;;;2.71;100.00
48882;BME280;57063;51.406;-2.402;2023-03-01T03:41:22;102064.03;;;2.61;100.00
48882;BME280;57063;51.406;-2.402;2023-03-01T03:43:53;102064.88;;;2.65;100.00
48882;BME280;57063;51.406;-2.402;2023-03-01T03:46:52;102076.81;;;2.78;100.00
48882;BME280;57063;51.406;-2.402;2023-03-01T03:49:34;102054.69;;;2.80;100.00
48882;BME280;57063;51.406;-2.402;2023-03-01T03:52:02;102054.72;;;2.86;100.00
48882;BME280;57063;51.406;-2.402;2023-03-01T03:54:31;102073.41;;;2.94;100.00
48882;BME280;57063;51.406;-2.402;2023-03-01T03:57:09;102109.97;;;3.26;100.00
48882;BME280;57063;51.406;-2.402;2023-03-01T03:59:38;102061.50;;;2.98;100.00
48882;BME280;57063;51.406;-2.402;2023-03-01T04:02:20;102058.97;;;3.03;100.00
48882;BME280;57063;51.406;-2.402;2023-03-01T04:04:54;102056.41;;;2.90;100.00
48882;BME280;57063;51.406;-2.402;2023-03-01T04:07:49;102066.59;;;2.96;100.00
48882;BME280;57063;51.406;-2.402;2023-03-01T04:10:41;102064.06;;;2.99;100.00
48882;BME280;57063;51.406;-2.402;2023-03-01T04:13:44;102105.72;;;3.20;100.00
48882;BME280;57063;51.406;-2.402;2023-03-01T04:16:21;102059.81;;;2.98;100.00
48882;BME280;57063;51.406;-2.402;2023-03-01T04:19:12;102060.66;;;3.00;100.00
48882;BME280;57063;51.406;-2.402;2023-03-01T04:21:51;102053.84;;;2.87;100.00
48882;BME280;57063;51.406;-2.402;2023-03-01T04:24:37;102051.31;;;2.96;100.00
48882;BME280;57063;51.406;-2.402;2023-03-01T04:27:23;102054.69;;;2.89;100.00
48882;BME280;57063;51.406;-2.402;2023-03-01T04:29:57;102055.56;;;2.91;100.00
48882;BME280;57063;51.406;-2.402;2023-03-01T04:32:40;102053.00;;;2.94;100.00
48882;BME280;57063;51.406;-2.402;2023-03-01T04:35:29;102048.78;;;3.03;100.00
48882;BME280;57063;51.406;-2.402;2023-03-01T04:38:22;102053.88;;;3.06;100.00
48882;BME280;57063;51.406;-2.402;2023-03-01T04:41:32;102058.09;;;3.13;100.00
48882;BME280;57063;51.406;-2.402;2023-03-01T04:44:24;102071.72;;;3.19;100.00
48882;BME280;57063;51.406;-2.402;2023-03-01T04:47:08;102085.31;;;3.29;100.00
48882;BME280;57063;51.406;-2.402;2023-03-01T04:53:22;102031.75;;;3.05;100.00
48882;BME280;57063;51.406;-2.402;2023-03-01T04:55:50;102036.00;;;2.96;100.00
48882;BME280;57063;51.406;-2.402;2023-03-01T04:58:33;102032.59;;;3.02;100.00
48882;BME280;57063;51.406;-2.402;2023-03-01T05:01:39;102033.44;;;3.01;100.00
48882;BME280;57063;51.406;-2.402;2023-03-01T05:04:35;102035.16;;;2.96;100.00
48882;BME280;57063;51.406;-2.402;2023-03-01T05:07:45;102036.88;;;2.95;100.00
48882;BME280;57063;51.406;-2.402;2023-03-01T05:10:35;102067.44;;;3.28;100.00
48882;BME280;57063;51.406;-2.402;2023-03-01T05:13:35;102052.16;;;2.98;100.00
48882;BME280;57063;51.406;-2.402;2023-03-01T05:16:30;102020.69;;;3.01;100.00
48882;BME280;57063;51.406;-2.402;2023-03-01T05:19:12;102050.47;;;3.13;100.00
48882;BME280;57063;51.406;-2.402;2023-03-01T05:22:07;102051.28;;;3.16;100.00
48882;BME280;57063;51.406;-2.402;2023-03-01T05:25:04;102013.91;;;2.95;100.00
48882;BME280;57063;51.406;-2.402;2023-03-01T05:28:05;102036.84;;;3.12;100.00
48882;BME280;57063;51.406;-2.402;2023-03-01T05:31:14;102020.69;;;3.10;100.00
48882;BME280;57063;51.406;-2.402;2023-03-01T05:33:50;102035.16;;;3.13;100.00
48882;BME280;57063;51.406;-2.402;2023-03-01T06:21:06;102058.97;;;3.15;100.00
48882;BME280;57063;51.406;-2.402;2023-03-01T06:23:36;102017.31;;;2.88;100.00
48882;BME280;57063;51.406;-2.402;2023-03-01T06:26:21;102007.94;;;2.84;100.00
48882;BME280;57063;51.406;-2.402;2023-03-01T06:29:07;102066.63;;;3.15;100.00
48882;BME280;57063;51.406;-2.402;2023-03-01T06:31:35;102013.06;;;2.81;100.00
48882;BME280;57063;51.406;-2.402;2023-03-01T06:34:04;102024.94;;;2.87;100.00
48882;BME280;57063;51.406;-2.402;2023-03-01T06:36:29;102047.91;;;3.05;100.00
48882;BME280;57063;51.406;-2.402;2023-03-01T06:38:55;102036.88;;;2.95;100.00
48882;BME280;57063;51.406;-2.402;2023-03-01T06:41:21;102018.16;;;2.90;100.00
48882;BME280;57063;51.406;-2.402;2023-03-01T06:43:46;102045.34;;;2.99;100.00
48882;BME280;57063;51.406;-2.402;2023-03-01T06:46:12;102019.84;;;2.71;100.00
48882;BME280;57063;51.406;-2.402;2023-03-01T06:48:37;102018.16;;;2.76;100.00
48882;BME280;57063;51.406;-2.402;2023-03-01T06:51:03;102028.34;;;2.83;100.00
48882;BME280;57063;51.406;-2.402;2023-03-01T06:53:29;102026.66;;;2.74;100.00
48882;BME280;57063;51.406;-2.402;2023-03-01T06:55:56;102029.22;;;2.78;100.00
48882;BME280;57063;51.406;-2.402;2023-03-01T06:58:22;102063.22;;;2.88;100.00
48882;BME280;57063;51.406;-2.402;2023-03-01T07:00:47;102036.84;;;2.82;100.00
48882;BME280;57063;51.406;-2.402;2023-03-01T07:03:13;102058.09;;;3.19;100.00
48882;BME280;57063;51.406;-2.402;2023-03-01T07:05:41;102026.66;;;3.02;100.00
48882;BME280;57063;51.406;-2.402;2023-03-01T07:08:06;102054.69;;;3.05;100.00
48882;BME280;57063;51.406;-2.402;2023-03-01T07:10:32;102054.69;;;3.02;100.00
48882;BME280;57063;51.406;-2.402;2023-03-01T07:12:58;102020.72;;;2.78;100.00
48882;BME280;57063;51.406;-2.402;2023-03-01T07:15:24;102024.97;;;2.91;100.00
48882;BME280;57063;51.406;-2.402;2023-03-01T07:37:21;102085.25;;;3.64;100.00
48882;BME280;57063;51.406;-2.402;2023-03-01T07:43:26;102048.63;;;3.79;100.00
48882;BME280;57063;51.406;-2.402;2023-03-01T07:52:18;102068.00;;;4.29;100.00
48882;BME280;57063;51.406;-2.402;2023-03-01T07:54:44;102056.22;;;3.98;100.00
48882;BME280;57063;51.406;-2.402;2023-03-01T07:57:13;102063.78;;;4.22;100.00
48882;BME280;57063;51.406;-2.402;2023-03-01T07:59:41;102066.25;;;4.32;100.00
48882;BME280;57063;51.406;-2.402;2023-03-01T08:02:54;102069.56;;;4.50;100.00
48882;BME280;57063;51.406;-2.402;2023-03-01T08:05:27;102107.81;;;4.69;100.00
48882;BME280;57063;51.406;-2.402;2023-03-01T08:07:55;102061.16;;;4.28;100.00
48882;BME280;57063;51.406;-2.402;2023-03-01T08:10:26;102082.38;;;4.47;100.00
48882;BME280;57063;51.406;-2.402;2023-03-01T08:12:52;102092.44;;;4.77;100.00
48882;BME280;57063;51.406;-2.402;2023-03-01T08:15:18;102070.41;;;4.53;100.00
48882;BME280;57063;51.406;-2.402;2023-03-01T08:17:44;102083.78;;;4.91;100.00
48882;BME280;57063;51.406;-2.402;2023-03-01T08:20:10;102072.75;;;4.85;100.00
48882;BME280;57063;51.406;-2.402;2023-03-01T08:22:38;102093.94;;;5.04;100.00
48882;BME280;57063;51.406;-2.402;2023-03-01T08:25:04;102055.66;;;4.93;100.00
48882;BME280;57063;51.406;-2.402;2023-03-01T08:27:30;102096.09;;;5.51;99.12
48882;BME280;57063;51.406;-2.402;2023-03-01T08:29:55;102103.63;;;5.65;95.37
48882;BME280;57063;51.406;-2.402;2023-03-01T08:32:21;102092.34;;;5.82;92.52
48882;BME280;57063;51.406;-2.402;2023-03-01T08:34:47;102049.03;;;5.62;89.64
48882;BME280;57063;51.406;-2.402;2023-03-01T08:37:12;102061.63;;;6.48;86.27
48882;BME280;57063;51.406;-2.402;2023-03-01T08:39:38;102057.81;;;7.73;79.35
48882;BME280;57063;51.406;-2.402;2023-03-01T08:42:03;102067.84;;;12.75;59.83
48882;BME280;57063;51.406;-2.402;2023-03-01T08:44:29;102047.38;;;14.99;51.15
48882;BME280;57063;51.406;-2.402;2023-03-01T08:46:55;102062.94;;;15.67;46.86
48882;BME280;57063;51.406;-2.402;2023-03-01T08:49:22;102067.63;;;11.91;52.98
48882;BME280;57063;51.406;-2.402;2023-03-01T08:51:47;102057.78;;;11.02;57.07
48882;BME280;57063;51.406;-2.402;2023-03-01T08:54:16;102064.63;;;10.20;59.96
48882;BME280;57063;51.406;-2.402;2023-03-01T08:56:42;102054.66;;;9.14;62.22
48882;BME280;57063;51.406;-2.402;2023-03-01T08:59:07;102069.25;;;8.42;66.02
48882;BME280;57063;51.406;-2.402;2023-03-01T09:01:33;102061.38;;;8.48;65.53
48882;BME280;57063;51.406;-2.402;2023-03-01T09:03:59;102095.06;;;8.36;66.00
48882;BME280;57063;51.406;-2.402;2023-03-01T09:06:24;102075.66;;;11.82;57.69
48882;BME280;57063;51.406;-2.402;2023-03-01T09:08:50;102071.75;;;12.85;53.48
48882;BME280;57063;51.406;-2.402;2023-03-01T09:11:19;102068.94;;;14.84;47.82
48882;BME280;57063;51.406;-2.402;2023-03-01T09:13:46;102044.59;;;16.80;43.91
48882;BME280;57063;51.406;-2.402;2023-03-01T09:16:14;102046.16;;;14.71;46.59
48882;BME280;57063;51.406;-2.402;2023-03-01T09:18:40;102064.63;;;19.30;39.64
48882;BME280;57063;51.406;-2.402;2023-03-01T09:21:08;102062.19;;;23.58;32.78
48882;BME280;57063;51.406;-2.402;2023-03-01T09:27:31;102074.97;;;18.93;38.43
48882;BME280;57063;51.406;-2.402;2023-03-01T09:30:06;102061.66;;;18.29;39.05
48882;BME280;57063;51.406;-2.402;2023-03-01T09:32:44;102089.84;;;20.43;34.88
48882;BME280;57063;51.406;-2.402;2023-03-01T09:35:10;102079.56;;;23.08;32.36
48882;BME280;57063;51.406;-2.402;2023-03-01T09:37:37;102087.38;;;22.25;34.05
48882;BME280;57063;51.406;-2.402;2023-03-01T09:40:20;102059.47;;;19.15;35.17
48882;BME280;57063;51.406;-2.402;2023-03-01T09:42:59;102086.25;;;17.26;39.42
48882;BME280;57063;51.406;-2.402;2023-03-01T09:45:43;102068.28;;;17.64;37.73
48882;BME280;57063;51.406;-2.402;2023-03-01T09:48:18;102040.19;;;12.75;47.01
48882;BME280;57063;51.406;-2.402;2023-03-01T09:50:57;102022.38;;;10.53;51.33
48882;BME280;57063;51.406;-2.402;2023-03-01T10:04:46;102032.66;;;9.35;58.96
48882;BME280;57063;51.406;-2.402;2023-03-01T10:09:51;101986.91;;;8.42;61.21
48882;BME280;57063;51.406;-2.402;2023-03-01T10:12:23;101986.53;;;8.20;63.10
48882;BME280;57063;51.406;-2.402;2023-03-01T10:17:57;102037.13;;;15.96;42.74
48882;BME280;57063;51.406;-2.402;2023-03-01T10:20:28;102191.91;;;17.93;38.75
48882;BME280;57063;51.406;-2.402;2023-03-01T10:22:55;102219.56;;;21.70;32.97
48882;BME280;57063;51.406;-2.402;2023-03-01T10:27:53;102008.69;;;15.59;39.98
48882;BME280;57063;51.406;-2.402;2023-03-01T10:30:32;102030.09;;;12.90;45.49
48882;BME280;57063;51.406;-2.402;2023-03-01T10:33:00;101989.41;;;11.36;49.96
48882;BME280;57063;51.406;-2.402;2023-03-01T10:35:29;101982.28;;;10.67;52.00
48882;BME280;57063;51.406;-2.402;2023-03-01T10:38:07;101996.41;;;9.41;54.88
48882;BME280;57063;51.406;-2.402;2023-03-01T10:40:59;101968.88;;;9.12;57.95
48882;BME280;57063;51.406;-2.402;2023-03-01T10:43:31;102017.19;;;9.35;59.82
48882;BME280;57063;51.406;-2.402;2023-03-01T10:49:10;102012.25;;;7.80;65.94
48882;BME280;57063;51.406;-2.402;2023-03-01T10:51:42;101979.09;;;7.24;68.25
48882;BME280;57063;51.406;-2.402;2023-03-01T10:54:29;102010.31;;;7.91;66.64
48882;BME280;57063;51.406;-2.402;2023-03-01T10:57:02;101958.44;;;8.12;65.95
48882;BME280;57063;51.406;-2.402;2023-03-01T10:59:41;101956.44;;;8.95;62.84
48882;BME280;57063;51.406;-2.402;2023-03-01T11:02:27;101937.44;;;8.67;62.80
48882;BME280;57063;51.406;-2.402;2023-03-01T11:07:54;101954.50;;;9.35;60.66
48882;BME280;57063;51.406;-2.402;2023-03-01T11:21:11;101911.44;;;14.27;49.00
48882;BME280;57063;51.406;-2.402;2023-03-01T11:24:09;101883.81;;;20.27;37.64
48882;BME280;57063;51.406;-2.402;2023-03-01T11:29:44;101929.06;;;20.53;34.46
48882;BME280;57063;51.406;-2.402;2023-03-01T11:32:32;101952.81;;;17.03;39.41
48882;BME280;57063;51.406;-2.402;2023-03-01T11:35:20;101925.84;;;13.98;46.22
48882;BME280;57063;51.406;-2.402;2023-03-01T12:08:41;101905.16;;;18.37;39.67
48882;BME280;57063;51.406;-2.402;2023-03-01T12:11:33;101873.44;;;14.77;44.80
48882;BME280;57063;51.406;-2.402;2023-03-01T12:28:48;101901.09;;;10.24;64.34
48882;BME280;57063;51.406;-2.402;2023-03-01T12:46:10;101874.09;;;9.80;61.10
48882;BME280;57063;51.406;-2.402;2023-03-01T12:51:13;101835.66;;;10.00;60.21
48882;BME280;57063;51.406;-2.402;2023-03-01T12:53:44;101854.72;;;9.95;60.14
48882;BME280;57063;51.406;-2.402;2023-03-01T13:04:24;101826.13;;;10.54;59.56
48882;BME280;57063;51.406;-2.402;2023-03-01T13:07:10;101791.38;;;9.33;60.24
48882;BME280;57063;51.406;-2.402;2023-03-01T13:13:20;101812.06;;;9.58;60.08
48882;BME280;57063;51.406;-2.402;2023-03-01T13:15:48;101763.09;;;9.58;59.07
48882;BME280;57063;51.406;-2.402;2023-03-01T13:23:31;101749.28;;;9.04;61.18
48882;BME280;57063;51.406;-2.402;2023-03-01T13:26:08;101759.97;;;9.48;58.34
48882;BME280;57063;51.406;-2.402;2023-03-01T13:33:46;101739.66;;;9.39;60.01
48882;BME280;57063;51.406;-2.402;2023-03-01T13:49:56;101749.63;;;10.01;57.89
48882;BME280;57063;51.406;-2.402;2023-03-01T13:57:44;101736.28;;;9.63;61.32
48882;BME280;57063;51.406;-2.402;2023-03-01T14:00:44;101721.06;;;9.56;63.50
48882;BME280;57063;51.406;-2.402;2023-03-01T14:03:18;101729.06;;;9.20;63.01
48882;BME280;57063;51.406;-2.402;2023-03-01T14:08:35;101725.75;;;8.59;67.85
48882;BME280;57063;51.406;-2.402;2023-03-01T14:19:47;101692.56;;;8.17;77.59
48882;BME280;57063;51.406;-2.402;2023-03-01T14:22:24;101688.00;;;8.26;76.71
48882;BME280;57063;51.406;-2.402;2023-03-01T14:24:58;101720.97;;;8.46;78.12
48882;BME280;57063;51.406;-2.402;2023-03-01T14:27:43;101689.31;;;8.43;75.85
48882;BME280;57063;51.406;-2.402;2023-03-01T14:30:27;101710.44;;;8.84;79.08
48882;BME280;57063;51.406;-2.402;2023-03-01T14:33:01;101703.66;;;8.81;77.91
48882;BME280;57063;51.406;-2.402;2023-03-01T14:35:30;101658.88;;;8.57;76.94
48882;BME280;57063;51.406;-2.402;2023-03-01T14:38:06;101667.47;;;8.86;76.07
48882;BME280;57063;51.406;-2.402;2023-03-01T14:40:42;101687.97;;;8.89;73.90
48882;BME280;57063;51.406;-2.402;2023-03-01T14:43:22;101661.56;;;8.82;73.28
48882;BME280;57063;51.406;-2.402;2023-03-01T14:45:58;101667.41;;;8.87;73.56
48882;BME280;57063;51.406;-2.402;2023-03-01T14:48:24;101667.50;;;8.84;74.37
48882;BME280;57063;51.406;-2.402;2023-03-01T14:50:54;101648.81;;;8.49;73.84
48882;BME280;57063;51.406;-2.402;2023-03-01T14:53:27;101656.31;;;8.26;73.40
48882;BME280;57063;51.406;-2.402;2023-03-01T14:55:56;101639.34;;;7.89;74.15
48882;BME280;57063;51.406;-2.402;2023-03-01T14:58:24;101651.94;;;7.98;74.45
48882;BME280;57063;51.406;-2.402;2023-03-01T15:00:54;101677.41;;;8.07;72.92
48882;BME280;57063;51.406;-2.402;2023-03-01T15:03:43;101667.50;;;7.92;71.50
48882;BME280;57063;51.406;-2.402;2023-03-01T15:06:09;101644.69;;;8.12;73.53
48882;BME280;57063;51.406;-2.402;2023-03-01T15:08:41;101638.38;;;8.24;70.92
48882;BME280;57063;51.406;-2.402;2023-03-01T15:13:42;101615.47;;;8.15;72.10
48882;BME280;57063;51.406;-2.402;2023-03-01T15:16:26;101608.75;;;8.09;73.09
48882;BME280;57063;51.406;-2.402;2023-03-01T15:19:04;101643.09;;;8.08;73.39
48882;BME280;57063;51.406;-2.402;2023-03-01T15:21:35;101609.56;;;7.49;73.74
48882;BME280;57063;51.406;-2.402;2023-03-01T15:24:06;101664.41;;;7.81;77.17
48882;BME280;57063;51.406;-2.402;2023-03-01T15:29:29;101598.25;;;7.56;78.41
48882;BME280;57063;51.406;-2.402;2023-03-01T15:34:34;101621.53;;;7.83;78.83
48882;BME280;57063;51.406;-2.402;2023-03-01T15:37:03;101587.78;;;7.62;80.66
48882;BME280;57063;51.406;-2.402;2023-03-01T15:39:42;101607.25;;;7.71;79.89
48882;BME280;57063;51.406;-2.402;2023-03-01T15:45:09;101624.16;;;7.47;79.15
48882;BME280;57063;51.406;-2.402;2023-03-01T15:47:35;101609.47;;;7.52;81.08
48882;BME280;57063;51.406;-2.402;2023-03-01T15:50:04;101566.75;;;7.15;78.17
48882;BME280;57063;51.406;-2.402;2023-03-01T15:52:40;101588.00;;;7.22;76.73
48882;BME280;57063;51.406;-2.402;2023-03-01T15:55:17;101584.66;;;7.17;76.54
48882;BME280;57063;51.406;-2.402;2023-03-01T15:57:42;101580.13;;;6.92;78.49
48882;BME280;57063;51.406;-2.402;2023-03-01T16:00:12;101571.69;;;6.89;79.80
48882;BME280;57063;51.406;-2.402;2023-03-01T16:02:39;101585.16;;;6.97;79.00
48882;BME280;57063;51.406;-2.402;2023-03-01T16:05:08;101583.38;;;6.63;79.54
48882;BME280;57063;51.406;-2.402;2023-03-01T16:07:40;101614.03;;;6.69;82.58
48882;BME280;57063;51.406;-2.402;2023-03-01T16:10:06;101604.38;;;6.41;87.37
48882;BME280;57063;51.406;-2.402;2023-03-01T16:12:31;101584.97;;;6.30;98.77
48882;BME280;57063;51.406;-2.402;2023-03-01T16:14:57;101601.94;;;6.35;100.00
48882;BME280;57063;51.406;-2.402;2023-03-01T16:17:23;101605.41;;;6.33;100.00
48882;BME280;57063;51.406;-2.402;2023-03-01T16:19:48;101570.44;;;6.30;100.00
48882;BME280;57063;51.406;-2.402;2023-03-01T16:22:14;101592.44;;;6.40;100.00
48882;BME280;57063;51.406;-2.402;2023-03-01T16:24:39;101581.31;;;6.40;100.00
48882;BME280;57063;51.406;-2.402;2023-03-01T16:27:06;101579.06;;;6.26;100.00
48882;BME280;57063;51.406;-2.402;2023-03-01T16:29:32;101561.16;;;6.25;100.00
48882;BME280;57063;51.406;-2.402;2023-03-01T16:32:00;101569.25;;;6.45;100.00
48882;BME280;57063;51.406;-2.402;2023-03-01T16:34:26;101573.81;;;6.32;100.00
48882;BME280;57063;51.406;-2.402;2023-03-01T16:36:52;101559.38;;;6.27;100.00
48882;BME280;57063;51.406;-2.402;2023-03-01T16:39:17;101578.13;;;6.29;100.00
48882;BME280;57063;51.406;-2.402;2023-03-01T16:41:43;101575.94;;;6.12;100.00
48882;BME280;57063;51.406;-2.402;2023-03-01T16:44:08;101593.84;;;6.15;100.00
48882;BME280;57063;51.406;-2.402;2023-03-01T16:46:35;101593.13;;;6.07;100.00
48882;BME280;57063;51.406;-2.402;2023-03-01T16:49:00;101567.88;;;5.85;100.00
48882;BME280;57063;51.406;-2.402;2023-03-01T16:51:26;101568.50;;;5.99;100.00
48882;BME280;57063;51.406;-2.402;2023-03-01T16:53:52;101571.22;;;5.90;100.00
48882;BME280;57063;51.406;-2.402;2023-03-01T16:56:18;101563.78;;;5.78;100.00
48882;BME280;57063;51.406;-2.402;2023-03-01T16:58:44;101586.78;;;5.79;100.00
48882;BME280;57063;51.406;-2.402;2023-03-01T17:01:15;101568.13;;;5.73;100.00
48882;BME280;57063;51.406;-2.402;2023-03-01T17:03:41;101553.97;;;5.55;100.00
48882;BME280;57063;51.406;-2.402;2023-03-01T17:06:10;101559.22;;;5.47;100.00
48882;BME280;57063;51.406;-2.402;2023-03-01T17:08:37;101563.53;;;5.45;100.00
48882;BME280;57063;51.406;-2.402;2023-03-01T17:11:11;101568.34;;;5.14;100.00
48882;BME280;57063;51.406;-2.402;2023-03-01T17:13:41;101550.88;;;4.88;100.00
48882;BME280;57063;51.406;-2.402;2023-03-01T17:16:09;101577.03;;;5.04;100.00
48882;BME280;57063;51.406;-2.402;2023-03-01T17:18:35;101546.84;;;4.73;100.00
48882;BME280;57063;51.406;-2.402;2023-03-01T17:21:02;101545.00;;;4.81;100.00
48882;BME280;57063;51.406;-2.402;2023-03-01T17:23:29;101541.59;;;4.81;100.00
48882;BME280;57063;51.406;-2.402;2023-03-01T17:25:55;101533.88;;;4.84;100.00
48882;BME280;57063;51.406;-2.402;2023-03-01T17:28:26;101539.81;;;4.84;100.00
48882;BME280;57063;51.406;-2.402;2023-03-01T17:30:52;101537.19;;;4.89;100.00
48882;BME280;57063;51.406;-2.402;2023-03-01T17:33:18;101544.59;;;5.07;100.00
48882;BME280;57063;51.406;-2.402;2023-03-01T17:35:44;101556.47;;;5.10;100.00
48882;BME280;57063;51.406;-2.402;2023-03-01T17:38:14;101545.56;;;4.97;100.00
48882;BME280;57063;51.406;-2.402;2023-03-01T17:40:41;101552.41;;;4.98;100.00
48882;BME280;57063;51.406;-2.402;2023-03-01T17:43:07;101535.34;;;4.97;100.00
48882;BME280;57063;51.406;-2.402;2023-03-01T17:45:36;101539.13;;;4.76;100.00
48882;BME280;57063;51.406;-2.402;2023-03-01T17:48:03;101547.28;;;4.98;100.00
48882;BME280;57063;51.406;-2.402;2023-03-01T17:50:28;101526.41;;;4.71;100.00
48882;BME280;57063;51.406;-2.402;2023-03-01T17:52:54;101552.72;;;4.78;100.00
48882;BME280;57063;51.406;-2.402;2023-03-01T17:55:22;101513.84;;;4.56;100.00
48882;BME280;57063;51.406;-2.402;2023-03-01T17:57:48;101548.81;;;4.54;100.00
48882;BME280;57063;51.406;-2.402;2023-03-01T18:00:16;101539.75;;;4.32;100.00
48882;BME280;57063;51.406;-2.402;2023-03-01T18:02:42;101536.34;;;4.34;100.00
48882;BME280;57063;51.406;-2.402;2023-03-01T18:11:22;101572.28;;;4.19;100.00
48882;BME280;57063;51.406;-2.402;2023-03-01T18:14:40;101542.03;;;3.85;100.00
48882;BME280;57063;51.406;-2.402;2023-03-01T18:17:12;101531.97;;;3.74;100.00
48882;BME280;57063;51.406;-2.402;2023-03-01T18:19:38;101540.22;;;3.96;100.00
48882;BME280;57063;51.406;-2.402;2023-03-01T18:22:08;101536.09;;;3.86;100.00
48882;BME280;57063;51.406;-2.402;2023-03-01T18:24:35;101564.16;;;3.88;100.00
48882;BME280;57063;51.406;-2.402;2023-03-01T18:27:01;101571.16;;;3.70;100.00
48882;BME280;57063;51.406;-2.402;2023-03-01T18:29:27;101550.81;;;3.62;100.00
48882;BME280;57063;51.406;-2.402;2023-03-01T18:31:52;101555.75;;;3.79;100.00
48882;BME280;57063;51.406;-2.402;2023-03-01T18:34:31;101569.34;;;3.81;100.00
48882;BME280;57063;51.406;-2.402;2023-03-01T18:37:08;101570.31;;;3.70;100.00
48882;BME280;57063;51.406;-2.402;2023-03-01T18:39:51;101540.00;;;3.40;100.00
48882;BME280;57063;51.406;-2.402;2023-03-01T18:42:17;101580.81;;;3.39;100.00
48882;BME280;57063;51.406;-2.402;2023-03-01T18:44:50;101536.09;;;2.99;100.00
48882;BME280;57063;51.406;-2.402;2023-03-01T18:47:18;101532.84;;;2.82;100.00
48882;BME280;57063;51.406;-2.402;2023-03-01T18:50:04;101553.03;;;3.10;100.00
48882;BME280;57063;51.406;-2.402;2023-03-01T18:52:31;101525.56;;;3.39;100.00
48882;BME280;57063;51.406;-2.402;2023-03-01T18:54:59;101559.56;;;3.41;100.00
48882;BME280;57063;51.406;-2.402;2023-03-01T19:00:40;101562.16;;;3.37;100.00
48882;BME280;57063;51.406;-2.402;2023-03-01T19:03:11;101523.09;;;3.30;100.00
48882;BME280;57063;51.406;-2.402;2023-03-01T19:13:54;101501.66;;;3.47;100.00
48882;BME280;57063;51.406;-2.402;2023-03-01T19:16:25;101493.84;;;3.59;100.00
48882;BME280;57063;51.406;-2.402;2023-03-01T19:19:02;101508.06;;;3.81;100.00
48882;BME280;57063;51.406;-2.402;2023-03-01T19:21:46;101514.03;;;3.77;100.00
48882;BME280;57063;51.406;-2.402;2023-03-01T19:24:26;101510.56;;;3.86;100.00
48882;BME280;57063;51.406;-2.402;2023-03-01T19:40:03;101495.22;;;3.86;100.00
48882;BME280;57063;51.406;-2.402;2023-03-01T19:42:47;101514.66;;;3.98;100.00
48882;BME280;57063;51.406;-2.402;2023-03-01T19:45:13;101484.06;;;3.93;100.00
48882;BME280;57063;51.406;-2.402;2023-03-01T19:47:40;101506.22;;;3.91;100.00
48882;BME280;57063;51.406;-2.402;2023-03-01T19:50:06;101483.25;;;3.91;100.00
48882;BME280;57063;51.406;-2.402;2023-03-01T19:52:32;101488.50;;;3.79;100.00
48882;BME280;57063;51.406;-2.402;2023-03-01T19:55:07;101501.19;;;3.86;100.00
48882;BME280;57063;51.406;-2.402;2023-03-01T19:57:34;101476.78;;;3.62;100.00
48882;BME280;57063;51.406;-2.402;2023-03-01T20:00:00;101493.84;;;3.59;100.00
48882;BME280;57063;51.406;-2.402;2023-03-01T20:02:36;101493.13;;;3.48;100.00
48882;BME280;57063;51.406;-2.402;2023-03-01T20:15:50;101491.41;;;3.50;100.00
48882;BME280;57063;51.406;-2.402;2023-03-01T20:18:46;101498.19;;;3.51;100.00
48882;BME280;57063;51.406;-2.402;2023-03-01T20:21:17;101482.13;;;3.44;100.00
48882;BME280;57063;51.406;-2.402;2023-03-01T20:23:57;101497.34;;;3.49;100.00
48882;BME280;57063;51.406;-2.402;2023-03-01T20:26:56;101521.75;;;3.74;100.00
48882;BME280;57063;51.406;-2.402;2023-03-01T20:29:28;101499.84;;;3.53;100.00
48882;BME280;57063;51.406;-2.402;2023-03-01T20:32:04;101529.34;;;3.80;100.00
48882;BME280;57063;51.406;-2.402;2023-03-01T20:34:48;101535.34;;;3.76;100.00
48882;BME280;57063;51.406;-2.402;2023-03-01T20:37:20;101521.03;;;3.63;100.00
48882;BME280;57063;51.406;-2.402;2023-03-01T20:39:49;101510.03;;;3.58;100.00
48882;BME280;57063;51.406;-2.402;2023-03-01T20:42:15;101496.41;;;3.59;100.00
48882;BME280;57063;51.406;-2.402;2023-03-01T20:44:43;101518.41;;;3.69;100.00
48882;BME280;57063;51.406;-2.402;2023-03-01T20:47:38;101509.09;;;3.67;100.00
48882;BME280;57063;51.406;-2.402;2023-03-01T20:50:22;101508.31;;;3.60;100.00
48882;BME280;57063;51.406;-2.402;2023-03-01T23:29:40;101509.97;;;3.64;100.00
